Aquitania — MADG — position and weather

sailwx.info

Track history (hours):
 
Tides and Currents Weather Stations Pressure Air Temp Water Temp Dewpoint Dewpoint Depression Visibility Wind Speed Wind Dir Waves Ship Positions

Aquitania

Last reported at 2017-Sep-16 00:37 UTC. Time now 2017-Sep-25 06:18 UTC.
Position N 04°13' W 003°11'.
Warning: this ship's position is 9 days out of date.

Length 190 m; draft 6.1 m.

Type: Cargo ship. MMSI: 235050012.

Date/timePositionNaut miles runAvg speedWind from/ knotsBaromVisibWave heightAir tempDewpointWater temp
2017-Sep-16 00:37N 04°13' W 003°11'210.4
2017-Sep-16 00:27N 04°13' W 003°09'510.3
2017-Sep-16 00:00N 04°14' W 003°05'510.3
2017-Sep-15 23:29N 04°14' W 002°59'510.1
2017-Sep-15 22:59N 04°14' W 002°54'510.5
2017-Sep-15 22:30N 04°14' W 002°49'510.1
2017-Sep-15 21:59N 04°15' W 002°44'510.3
2017-Sep-15 21:29N 04°15' W 002°39'510.5
2017-Sep-15 21:00N 04°15' W 002°34'510.4
2017-Sep-15 20:30N 04°15' W 002°28'510.6
2017-Sep-15 19:59N 04°16' W 002°23'510.6
2017-Sep-15 19:29N 04°16' W 002°18'510.7
2017-Sep-15 19:00N 04°16' W 002°13'610.8
2017-Sep-15 18:30N 04°16' W 002°07'510.6
2017-Sep-15 17:59N 04°17' W 002°02'510.7
2017-Sep-15 17:29N 04°18' W 001°56'510.6
2017-Sep-15 16:59N 04°19' W 001°51'1710.4
2017-Sep-15 15:18N 04°20' W 001°34'129 2.5
2017-Sep-13 11:45N 04°58' E 000°30'  
Track history (hours):
 
Tides and Currents Weather Stations Pressure Air Temp Water Temp Dewpoint Dewpoint Depression Visibility Wind Speed Wind Dir Waves Ship Positions

Aquitania

Last reported at 2017-Sep-16 00:37 UTC. Time now 2017-Sep-25 06:18 UTC.
Position N 04°13' W 003°11'.
Warning: this ship's position is 9 days out of date.

Length 190 m; draft 6.1 m.

Type: Cargo ship. MMSI: 235050012.

Date/timePositionNaut miles runAvg speedWind from/ knotsBaromVisibWave heightAir tempDewpointWater temp
2017-Sep-16 00:37N 04°13' W 003°11'210.4
2017-Sep-16 00:27N 04°13' W 003°09'510.3
2017-Sep-16 00:00N 04°14' W 003°05'510.3
2017-Sep-15 23:29N 04°14' W 002°59'510.1
2017-Sep-15 22:59N 04°14' W 002°54'510.5
2017-Sep-15 22:30N 04°14' W 002°49'510.1
2017-Sep-15 21:59N 04°15' W 002°44'510.3
2017-Sep-15 21:29N 04°15' W 002°39'510.5
2017-Sep-15 21:00N 04°15' W 002°34'510.4
2017-Sep-15 20:30N 04°15' W 002°28'510.6
2017-Sep-15 19:59N 04°16' W 002°23'510.6
2017-Sep-15 19:29N 04°16' W 002°18'510.7
2017-Sep-15 19:00N 04°16' W 002°13'610.8
2017-Sep-15 18:30N 04°16' W 002°07'510.6
2017-Sep-15 17:59N 04°17' W 002°02'510.7
2017-Sep-15 17:29N 04°18' W 001°56'510.6
2017-Sep-15 16:59N 04°19' W 001°51'1710.4
2017-Sep-15 15:18N 04°20' W 001°34'129 2.5
2017-Sep-13 11:45N 04°58' E 000°30'  

Dump ship's entire track history